sensor_id;sensor_type;location;lat;lon;timestamp;P1;durP1;ratioP1;P2;durP2;ratioP2
3121;SDS011;1571;52.524;14.104;2023-05-10T00:01:47;5.73;;;5.23;;
3121;SDS011;1571;52.524;14.104;2023-05-10T00:04:15;4.73;;;4.27;;
3121;SDS011;1571;52.524;14.104;2023-05-10T00:06:44;4.87;;;4.47;;
3121;SDS011;1571;52.524;14.104;2023-05-10T00:09:14;4.60;;;4.20;;
3121;SDS011;1571;52.524;14.104;2023-05-10T00:11:42;9.93;;;5.40;;
3121;SDS011;1571;52.524;14.104;2023-05-10T00:14:10;5.73;;;4.83;;
3121;SDS011;1571;52.524;14.104;2023-05-10T00:16:39;4.73;;;4.33;;
3121;SDS011;1571;52.524;14.104;2023-05-10T00:19:07;4.70;;;4.40;;
3121;SDS011;1571;52.524;14.104;2023-05-10T00:21:36;5.33;;;4.87;;
3121;SDS011;1571;52.524;14.104;2023-05-10T00:24:04;6.03;;;5.43;;
3121;SDS011;1571;52.524;14.104;2023-05-10T00:26:34;5.90;;;4.93;;
3121;SDS011;1571;52.524;14.104;2023-05-10T00:29:02;6.07;;;5.10;;
3121;SDS011;1571;52.524;14.104;2023-05-10T00:31:30;7.90;;;4.80;;
3121;SDS011;1571;52.524;14.104;2023-05-10T00:33:59;4.50;;;4.17;;
3121;SDS011;1571;52.524;14.104;2023-05-10T00:36:27;6.90;;;4.87;;
3121;SDS011;1571;52.524;14.104;2023-05-10T00:38:55;5.30;;;4.80;;
3121;SDS011;1571;52.524;14.104;2023-05-10T00:41:23;6.17;;;4.47;;
3121;SDS011;1571;52.524;14.104;2023-05-10T00:43:53;6.17;;;4.67;;
3121;SDS011;1571;52.524;14.104;2023-05-10T00:46:22;6.70;;;4.30;;
3121;SDS011;1571;52.524;14.104;2023-05-10T00:48:51;5.20;;;4.50;;
3121;SDS011;1571;52.524;14.104;2023-05-10T00:51:20;5.17;;;4.67;;
3121;SDS011;1571;52.524;14.104;2023-05-10T00:53:48;8.90;;;5.80;;
3121;SDS011;1571;52.524;14.104;2023-05-10T00:56:18;5.10;;;4.60;;
3121;SDS011;1571;52.524;14.104;2023-05-10T00:58:49;7.30;;;5.50;;
3121;SDS011;1571;52.524;14.104;2023-05-10T01:01:19;5.47;;;4.70;;
3121;SDS011;1571;52.524;14.104;2023-05-10T01:03:48;5.93;;;4.50;;
3121;SDS011;1571;52.524;14.104;2023-05-10T01:06:16;5.30;;;4.47;;
3121;SDS011;1571;52.524;14.104;2023-05-10T01:08:44;10.80;;;4.57;;
3121;SDS011;1571;52.524;14.104;2023-05-10T01:11:13;7.63;;;6.00;;
3121;SDS011;1571;52.524;14.104;2023-05-10T01:13:42;7.13;;;5.03;;
3121;SDS011;1571;52.524;14.104;2023-05-10T01:16:14;6.83;;;4.07;;
3121;SDS011;1571;52.524;14.104;2023-05-10T01:18:44;5.27;;;4.57;;
3121;SDS011;1571;52.524;14.104;2023-05-10T01:21:15;4.97;;;4.53;;
3121;SDS011;1571;52.524;14.104;2023-05-10T01:32:52;5.03;;;4.53;;
3121;SDS011;1571;52.524;14.104;2023-05-10T01:35:26;5.53;;;5.10;;
3121;SDS011;1571;52.524;14.104;2023-05-10T01:38:04;6.40;;;4.33;;
3121;SDS011;1571;52.524;14.104;2023-05-10T01:40:42;5.23;;;4.10;;
3121;SDS011;1571;52.524;14.104;2023-05-10T01:43:17;5.47;;;5.07;;
3121;SDS011;1571;52.524;14.104;2023-05-10T01:46:00;4.33;;;4.00;;
3121;SDS011;1571;52.524;14.104;2023-05-10T01:48:38;8.53;;;4.20;;
3121;SDS011;1571;52.524;14.104;2023-05-10T01:51:13;5.53;;;4.77;;
3121;SDS011;1571;52.524;14.104;2023-05-10T01:53:44;5.80;;;4.23;;
3121;SDS011;1571;52.524;14.104;2023-05-10T01:56:15;7.37;;;4.80;;
3121;SDS011;1571;52.524;14.104;2023-05-10T01:58:48;5.77;;;5.10;;
3121;SDS011;1571;52.524;14.104;2023-05-10T02:01:18;4.73;;;4.10;;
3121;SDS011;1571;52.524;14.104;2023-05-10T02:03:51;4.50;;;4.10;;
3121;SDS011;1571;52.524;14.104;2023-05-10T02:06:21;7.80;;;5.10;;
3121;SDS011;1571;52.524;14.104;2023-05-10T02:08:51;7.47;;;4.70;;
3121;SDS011;1571;52.524;14.104;2023-05-10T02:11:21;6.90;;;5.33;;
3121;SDS011;1571;52.524;14.104;2023-05-10T02:13:51;6.97;;;4.50;;
3121;SDS011;1571;52.524;14.104;2023-05-10T02:16:27;5.73;;;5.23;;
3121;SDS011;1571;52.524;14.104;2023-05-10T02:19:00;8.10;;;4.60;;
3121;SDS011;1571;52.524;14.104;2023-05-10T02:21:29;5.13;;;3.90;;
3121;SDS011;1571;52.524;14.104;2023-05-10T02:24:00;5.80;;;5.20;;
3121;SDS011;1571;52.524;14.104;2023-05-10T02:26:30;5.10;;;4.60;;
3121;SDS011;1571;52.524;14.104;2023-05-10T02:29:01;4.80;;;4.33;;
3121;SDS011;1571;52.524;14.104;2023-05-10T02:31:31;5.17;;;4.67;;
3121;SDS011;1571;52.524;14.104;2023-05-10T02:34:02;4.73;;;4.20;;
3121;SDS011;1571;52.524;14.104;2023-05-10T02:36:31;7.33;;;5.00;;
3121;SDS011;1571;52.524;14.104;2023-05-10T02:39:00;5.70;;;4.40;;
3121;SDS011;1571;52.524;14.104;2023-05-10T02:41:30;7.73;;;5.07;;
3121;SDS011;1571;52.524;14.104;2023-05-10T02:44:01;4.87;;;3.97;;
3121;SDS011;1571;52.524;14.104;2023-05-10T02:46:30;4.90;;;4.50;;
3121;SDS011;1571;52.524;14.104;2023-05-10T02:48:59;6.40;;;5.60;;
3121;SDS011;1571;52.524;14.104;2023-05-10T02:51:30;4.43;;;4.03;;
3121;SDS011;1571;52.524;14.104;2023-05-10T02:54:01;4.77;;;4.33;;
3121;SDS011;1571;52.524;14.104;2023-05-10T02:56:46;4.30;;;3.90;;
3121;SDS011;1571;52.524;14.104;2023-05-10T02:59:18;4.70;;;4.30;;
3121;SDS011;1571;52.524;14.104;2023-05-10T03:01:46;10.10;;;5.07;;
3121;SDS011;1571;52.524;14.104;2023-05-10T03:04:15;9.00;;;5.20;;
3121;SDS011;1571;52.524;14.104;2023-05-10T03:06:44;5.50;;;4.97;;
3121;SDS011;1571;52.524;14.104;2023-05-10T03:09:12;4.90;;;4.40;;
3121;SDS011;1571;52.524;14.104;2023-05-10T03:11:47;4.27;;;3.80;;
3121;SDS011;1571;52.524;14.104;2023-05-10T03:14:26;5.43;;;4.10;;
3121;SDS011;1571;52.524;14.104;2023-05-10T03:17:08;4.60;;;4.20;;
3121;SDS011;1571;52.524;14.104;2023-05-10T03:19:43;4.10;;;3.80;;
3121;SDS011;1571;52.524;14.104;2023-05-10T03:22:19;4.50;;;4.10;;
3121;SDS011;1571;52.524;14.104;2023-05-10T03:24:53;4.83;;;4.43;;
3121;SDS011;1571;52.524;14.104;2023-05-10T03:27:27;5.63;;;3.97;;
3121;SDS011;1571;52.524;14.104;2023-05-10T03:29:55;7.80;;;4.30;;
3121;SDS011;1571;52.524;14.104;2023-05-10T03:32:25;4.77;;;4.37;;
3121;SDS011;1571;52.524;14.104;2023-05-10T03:34:54;8.03;;;5.10;;
3121;SDS011;1571;52.524;14.104;2023-05-10T03:37:25;5.50;;;5.00;;
3121;SDS011;1571;52.524;14.104;2023-05-10T03:39:53;4.27;;;3.87;;
3121;SDS011;1571;52.524;14.104;2023-05-10T03:42:21;5.03;;;4.60;;
3121;SDS011;1571;52.524;14.104;2023-05-10T03:44:50;5.70;;;4.20;;
3121;SDS011;1571;52.524;14.104;2023-05-10T03:47:18;5.90;;;5.30;;
3121;SDS011;1571;52.524;14.104;2023-05-10T03:49:46;7.30;;;4.50;;
3121;SDS011;1571;52.524;14.104;2023-05-10T03:52:14;7.20;;;4.30;;
3121;SDS011;1571;52.524;14.104;2023-05-10T03:54:44;3.77;;;3.47;;
3121;SDS011;1571;52.524;14.104;2023-05-10T03:57:12;5.93;;;4.17;;
3121;SDS011;1571;52.524;14.104;2023-05-10T03:59:40;5.67;;;5.17;;
3121;SDS011;1571;52.524;14.104;2023-05-10T04:02:09;4.27;;;3.87;;
3121;SDS011;1571;52.524;14.104;2023-05-10T04:04:37;6.53;;;5.53;;
3121;SDS011;1571;52.524;14.104;2023-05-10T04:07:05;4.40;;;4.00;;
3121;SDS011;1571;52.524;14.104;2023-05-10T04:09:33;6.60;;;4.80;;
3121;SDS011;1571;52.524;14.104;2023-05-10T04:12:04;4.77;;;3.90;;
3121;SDS011;1571;52.524;14.104;2023-05-10T04:14:35;5.10;;;4.37;;
3121;SDS011;1571;52.524;14.104;2023-05-10T04:17:04;4.17;;;3.83;;
3121;SDS011;1571;52.524;14.104;2023-05-10T04:19:32;4.83;;;3.50;;
3121;SDS011;1571;52.524;14.104;2023-05-10T04:22:02;4.73;;;3.17;;
3121;SDS011;1571;52.524;14.104;2023-05-10T04:24:30;5.10;;;4.70;;
3121;SDS011;1571;52.524;14.104;2023-05-10T04:26:58;3.57;;;3.27;;
3121;SDS011;1571;52.524;14.104;2023-05-10T04:29:28;3.73;;;3.43;;
3121;SDS011;1571;52.524;14.104;2023-05-10T04:31:56;4.77;;;3.43;;
3121;SDS011;1571;52.524;14.104;2023-05-10T04:34:24;3.70;;;3.40;;
3121;SDS011;1571;52.524;14.104;2023-05-10T04:36:53;4.53;;;4.13;;
3121;SDS011;1571;52.524;14.104;2023-05-10T04:39:21;4.97;;;3.10;;
3121;SDS011;1571;52.524;14.104;2023-05-10T04:41:49;5.70;;;4.00;;
3121;SDS011;1571;52.524;14.104;2023-05-10T04:44:17;4.43;;;4.03;;
3121;SDS011;1571;52.524;14.104;2023-05-10T04:46:47;5.13;;;4.37;;
3121;SDS011;1571;52.524;14.104;2023-05-10T04:49:15;3.80;;;3.57;;
3121;SDS011;1571;52.524;14.104;2023-05-10T04:51:44;4.73;;;3.60;;
3121;SDS011;1571;52.524;14.104;2023-05-10T04:54:12;3.63;;;3.30;;
3121;SDS011;1571;52.524;14.104;2023-05-10T04:56:41;5.20;;;3.50;;
3121;SDS011;1571;52.524;14.104;2023-05-10T04:59:09;3.90;;;3.50;;
3121;SDS011;1571;52.524;14.104;2023-05-10T05:01:37;4.50;;;3.37;;
3121;SDS011;1571;52.524;14.104;2023-05-10T05:04:07;3.60;;;3.30;;
3121;SDS011;1571;52.524;14.104;2023-05-10T05:06:35;4.50;;;3.47;;
3121;SDS011;1571;52.524;14.104;2023-05-10T05:09:03;6.47;;;4.40;;
3121;SDS011;1571;52.524;14.104;2023-05-10T05:11:32;4.10;;;3.80;;
3121;SDS011;1571;52.524;14.104;2023-05-10T05:14:00;4.43;;;3.50;;
3121;SDS011;1571;52.524;14.104;2023-05-10T05:16:30;4.20;;;3.73;;
3121;SDS011;1571;52.524;14.104;2023-05-10T05:18:59;4.93;;;3.80;;
3121;SDS011;1571;52.524;14.104;2023-05-10T05:21:29;4.13;;;3.70;;
3121;SDS011;1571;52.524;14.104;2023-05-10T05:23:58;2.90;;;2.70;;
3121;SDS011;1571;52.524;14.104;2023-05-10T05:26:27;3.97;;;3.57;;
3121;SDS011;1571;52.524;14.104;2023-05-10T05:28:55;4.10;;;3.60;;
3121;SDS011;1571;52.524;14.104;2023-05-10T05:31:23;4.03;;;3.20;;
3121;SDS011;1571;52.524;14.104;2023-05-10T05:33:52;4.17;;;3.77;;
3121;SDS011;1571;52.524;14.104;2023-05-10T05:36:20;4.43;;;3.40;;
3121;SDS011;1571;52.524;14.104;2023-05-10T05:38:50;3.33;;;3.03;;
3121;SDS011;1571;52.524;14.104;2023-05-10T05:41:18;3.77;;;3.40;;
3121;SDS011;1571;52.524;14.104;2023-05-10T05:43:48;4.80;;;2.73;;
3121;SDS011;1571;52.524;14.104;2023-05-10T05:46:16;3.20;;;2.93;;
3121;SDS011;1571;52.524;14.104;2023-05-10T05:48:44;9.73;;;4.17;;
3121;SDS011;1571;52.524;14.104;2023-05-10T05:51:13;7.60;;;3.70;;
3121;SDS011;1571;52.524;14.104;2023-05-10T05:53:41;6.37;;;3.47;;
3121;SDS011;1571;52.524;14.104;2023-05-10T05:56:10;3.33;;;3.03;;
3121;SDS011;1571;52.524;14.104;2023-05-10T05:58:39;5.03;;;3.33;;
3121;SDS011;1571;52.524;14.104;2023-05-10T06:01:07;3.33;;;3.03;;
3121;SDS011;1571;52.524;14.104;2023-05-10T06:03:35;4.90;;;3.27;;
3121;SDS011;1571;52.524;14.104;2023-05-10T06:06:04;3.80;;;3.50;;
3121;SDS011;1571;52.524;14.104;2023-05-10T06:08:32;3.00;;;2.73;;
3121;SDS011;1571;52.524;14.104;2023-05-10T06:11:00;4.23;;;3.00;;
3121;SDS011;1571;52.524;14.104;2023-05-10T06:13:32;5.27;;;3.20;;
3121;SDS011;1571;52.524;14.104;2023-05-10T06:16:02;4.10;;;3.03;;
3121;SDS011;1571;52.524;14.104;2023-05-10T06:18:30;3.63;;;3.33;;
3121;SDS011;1571;52.524;14.104;2023-05-10T06:20:59;4.27;;;3.30;;
3121;SDS011;1571;52.524;14.104;2023-05-10T06:23:27;3.37;;;3.07;;
3121;SDS011;1571;52.524;14.104;2023-05-10T06:25:55;3.10;;;2.90;;
3121;SDS011;1571;52.524;14.104;2023-05-10T06:28:23;5.20;;;3.67;;
3121;SDS011;1571;52.524;14.104;2023-05-10T06:30:53;4.00;;;2.83;;
3121;SDS011;1571;52.524;14.104;2023-05-10T06:33:21;5.50;;;3.37;;
3121;SDS011;1571;52.524;14.104;2023-05-10T06:35:50;3.33;;;2.83;;
3121;SDS011;1571;52.524;14.104;2023-05-10T06:38:18;3.30;;;2.80;;
3121;SDS011;1571;52.524;14.104;2023-05-10T06:40:46;3.93;;;2.80;;
3121;SDS011;1571;52.524;14.104;2023-05-10T06:43:14;3.00;;;2.80;;
3121;SDS011;1571;52.524;14.104;2023-05-10T06:45:43;3.33;;;3.03;;
3121;SDS011;1571;52.524;14.104;2023-05-10T06:48:12;2.87;;;2.67;;
3121;SDS011;1571;52.524;14.104;2023-05-10T06:50:41;4.83;;;2.90;;
3121;SDS011;1571;52.524;14.104;2023-05-10T06:53:09;2.60;;;2.40;;
3121;SDS011;1571;52.524;14.104;2023-05-10T06:55:38;2.90;;;2.70;;
3121;SDS011;1571;52.524;14.104;2023-05-10T06:58:06;2.80;;;2.60;;
3121;SDS011;1571;52.524;14.104;2023-05-10T07:00:35;2.40;;;2.20;;
3121;SDS011;1571;52.524;14.104;2023-05-10T07:03:06;3.03;;;2.83;;
3121;SDS011;1571;52.524;14.104;2023-05-10T07:05:35;3.20;;;2.93;;
3121;SDS011;1571;52.524;14.104;2023-05-10T07:08:04;2.40;;;2.20;;
3121;SDS011;1571;52.524;14.104;2023-05-10T07:10:32;2.80;;;1.93;;
3121;SDS011;1571;52.524;14.104;2023-05-10T07:13:00;4.50;;;2.47;;
3121;SDS011;1571;52.524;14.104;2023-05-10T07:15:29;4.23;;;2.33;;
3121;SDS011;1571;52.524;14.104;2023-05-10T07:17:57;2.70;;;2.50;;
3121;SDS011;1571;52.524;14.104;2023-05-10T07:20:26;4.00;;;2.37;;
3121;SDS011;1571;52.524;14.104;2023-05-10T07:22:56;7.00;;;2.70;;
3121;SDS011;1571;52.524;14.104;2023-05-10T07:25:24;4.60;;;2.87;;
3121;SDS011;1571;52.524;14.104;2023-05-10T07:27:52;3.57;;;2.20;;
3121;SDS011;1571;52.524;14.104;2023-05-10T07:30:21;2.80;;;2.50;;
3121;SDS011;1571;52.524;14.104;2023-05-10T07:32:49;4.77;;;2.73;;
3121;SDS011;1571;52.524;14.104;2023-05-10T07:35:17;2.67;;;2.47;;
3121;SDS011;1571;52.524;14.104;2023-05-10T07:37:45;4.70;;;2.20;;
3121;SDS011;1571;52.524;14.104;2023-05-10T07:40:15;3.40;;;3.13;;
3121;SDS011;1571;52.524;14.104;2023-05-10T07:42:44;3.53;;;1.97;;
3121;SDS011;1571;52.524;14.104;2023-05-10T07:45:12;3.03;;;2.00;;
3121;SDS011;1571;52.524;14.104;2023-05-10T07:47:40;3.43;;;2.43;;
3121;SDS011;1571;52.524;14.104;2023-05-10T07:50:09;3.10;;;2.13;;
3121;SDS011;1571;52.524;14.104;2023-05-10T07:52:37;2.57;;;2.27;;
3121;SDS011;1571;52.524;14.104;2023-05-10T07:55:06;3.67;;;2.70;;
3121;SDS011;1571;52.524;14.104;2023-05-10T07:57:37;2.60;;;2.00;;
3121;SDS011;1571;52.524;14.104;2023-05-10T08:00:06;2.63;;;1.90;;
3121;SDS011;1571;52.524;14.104;2023-05-10T08:02:41;2.30;;;2.20;;
3121;SDS011;1571;52.524;14.104;2023-05-10T08:05:09;4.90;;;2.27;;
3121;SDS011;1571;52.524;14.104;2023-05-10T08:07:37;2.03;;;1.83;;
3121;SDS011;1571;52.524;14.104;2023-05-10T08:10:06;3.20;;;2.37;;
3121;SDS011;1571;52.524;14.104;2023-05-10T08:12:37;2.53;;;2.33;;
3121;SDS011;1571;52.524;14.104;2023-05-10T08:15:06;2.60;;;2.40;;
3121;SDS011;1571;52.524;14.104;2023-05-10T08:17:35;7.07;;;2.50;;
3121;SDS011;1571;52.524;14.104;2023-05-10T08:20:04;2.90;;;2.70;;
3121;SDS011;1571;52.524;14.104;2023-05-10T08:22:34;3.00;;;2.03;;
3121;SDS011;1571;52.524;14.104;2023-05-10T08:25:02;6.20;;;2.37;;
3121;SDS011;1571;52.524;14.104;2023-05-10T08:27:31;2.13;;;2.03;;
3121;SDS011;1571;52.524;14.104;2023-05-10T08:30:00;5.07;;;2.30;;
3121;SDS011;1571;52.524;14.104;2023-05-10T08:32:28;2.97;;;2.10;;
3121;SDS011;1571;52.524;14.104;2023-05-10T08:34:57;3.13;;;2.17;;
3121;SDS011;1571;52.524;14.104;2023-05-10T08:37:25;6.50;;;2.07;;
3121;SDS011;1571;52.524;14.104;2023-05-10T08:39:57;2.30;;;1.93;;
3121;SDS011;1571;52.524;14.104;2023-05-10T08:42:25;3.13;;;2.00;;
3121;SDS011;1571;52.524;14.104;2023-05-10T08:44:58;1.93;;;1.60;;
3121;SDS011;1571;52.524;14.104;2023-05-10T08:47:28;1.97;;;1.87;;
3121;SDS011;1571;52.524;14.104;2023-05-10T08:49:57;3.20;;;2.00;;
3121;SDS011;1571;52.524;14.104;2023-05-10T08:52:27;2.17;;;1.90;;
3121;SDS011;1571;52.524;14.104;2023-05-10T08:54:57;2.67;;;2.20;;
3121;SDS011;1571;52.524;14.104;2023-05-10T08:57:26;2.40;;;1.80;;
3121;SDS011;1571;52.524;14.104;2023-05-10T08:59:54;3.77;;;2.20;;
3121;SDS011;1571;52.524;14.104;2023-05-10T09:02:23;5.13;;;2.13;;
3121;SDS011;1571;52.524;14.104;2023-05-10T09:04:53;4.23;;;2.03;;
3121;SDS011;1571;52.524;14.104;2023-05-10T09:07:21;5.83;;;2.47;;
3121;SDS011;1571;52.524;14.104;2023-05-10T09:09:49;2.30;;;2.10;;
3121;SDS011;1571;52.524;14.104;2023-05-10T09:12:18;4.23;;;2.63;;
3121;SDS011;1571;52.524;14.104;2023-05-10T09:14:46;3.00;;;2.70;;
3121;SDS011;1571;52.524;14.104;2023-05-10T09:17:15;2.43;;;1.90;;
3121;SDS011;1571;52.524;14.104;2023-05-10T09:19:44;3.43;;;1.90;;
3121;SDS011;1571;52.524;14.104;2023-05-10T09:22:14;6.73;;;2.63;;
3121;SDS011;1571;52.524;14.104;2023-05-10T09:24:42;3.50;;;2.60;;
3121;SDS011;1571;52.524;14.104;2023-05-10T09:27:12;2.93;;;2.10;;
3121;SDS011;1571;52.524;14.104;2023-05-10T09:29:42;1.93;;;1.83;;
3121;SDS011;1571;52.524;14.104;2023-05-10T09:32:10;4.47;;;1.63;;
3121;SDS011;1571;52.524;14.104;2023-05-10T09:34:39;2.53;;;2.37;;
3121;SDS011;1571;52.524;14.104;2023-05-10T09:37:09;4.53;;;2.43;;
3121;SDS011;1571;52.524;14.104;2023-05-10T09:39:38;2.00;;;1.47;;
3121;SDS011;1571;52.524;14.104;2023-05-10T09:42:08;2.43;;;2.03;;
3121;SDS011;1571;52.524;14.104;2023-05-10T09:44:37;6.03;;;2.30;;
3121;SDS011;1571;52.524;14.104;2023-05-10T09:47:07;2.77;;;2.30;;
3121;SDS011;1571;52.524;14.104;2023-05-10T09:49:36;4.40;;;2.00;;
3121;SDS011;1571;52.524;14.104;2023-05-10T09:52:04;2.77;;;2.57;;
3121;SDS011;1571;52.524;14.104;2023-05-10T09:54:34;9.13;;;2.90;;
3121;SDS011;1571;52.524;14.104;2023-05-10T09:57:04;2.23;;;2.10;;
3121;SDS011;1571;52.524;14.104;2023-05-10T09:59:32;4.53;;;2.33;;
3121;SDS011;1571;52.524;14.104;2023-05-10T10:02:02;2.20;;;2.07;;
3121;SDS011;1571;52.524;14.104;2023-05-10T10:04:30;2.70;;;1.93;;
3121;SDS011;1571;52.524;14.104;2023-05-10T10:07:00;2.60;;;2.30;;
3121;SDS011;1571;52.524;14.104;2023-05-10T10:09:30;2.20;;;1.60;;
3121;SDS011;1571;52.524;14.104;2023-05-10T10:11:59;1.63;;;1.53;;
3121;SDS011;1571;52.524;14.104;2023-05-10T10:14:30;3.23;;;2.40;;
3121;SDS011;1571;52.524;14.104;2023-05-10T10:16:59;1.80;;;1.70;;
3121;SDS011;1571;52.524;14.104;2023-05-10T10:19:32;3.50;;;1.40;;
3121;SDS011;1571;52.524;14.104;2023-05-10T10:22:01;1.83;;;1.73;;
3121;SDS011;1571;52.524;14.104;2023-05-10T10:24:29;2.10;;;1.40;;
3121;SDS011;1571;52.524;14.104;2023-05-10T10:27:00;3.60;;;1.93;;
3121;SDS011;1571;52.524;14.104;2023-05-10T10:29:39;3.90;;;1.97;;
3121;SDS011;1571;52.524;14.104;2023-05-10T10:32:19;4.30;;;1.83;;
3121;SDS011;1571;52.524;14.104;2023-05-10T10:34:52;5.63;;;1.50;;
3121;SDS011;1571;52.524;14.104;2023-05-10T10:37:23;2.90;;;1.40;;
3121;SDS011;1571;52.524;14.104;2023-05-10T10:40:27;2.93;;;2.63;;
3121;SDS011;1571;52.524;14.104;2023-05-10T10:48:41;1.33;;;1.23;;
3121;SDS011;1571;52.524;14.104;2023-05-10T10:51:14;2.30;;;1.60;;
3121;SDS011;1571;52.524;14.104;2023-05-10T10:53:43;3.30;;;1.97;;
3121;SDS011;1571;52.524;14.104;2023-05-10T10:56:12;3.00;;;2.03;;
3121;SDS011;1571;52.524;14.104;2023-05-10T10:58:42;3.33;;;1.50;;
3121;SDS011;1571;52.524;14.104;2023-05-10T11:01:19;2.17;;;1.30;;
3121;SDS011;1571;52.524;14.104;2023-05-10T11:03:55;3.63;;;1.60;;
3121;SDS011;1571;52.524;14.104;2023-05-10T11:06:46;1.60;;;1.50;;
3121;SDS011;1571;52.524;14.104;2023-05-10T11:09:14;1.63;;;1.30;;
3121;SDS011;1571;52.524;14.104;2023-05-10T11:11:50;4.80;;;1.83;;
3121;SDS011;1571;52.524;14.104;2023-05-10T11:14:21;4.33;;;1.83;;
3121;SDS011;1571;52.524;14.104;2023-05-10T11:16:51;2.50;;;1.50;;
3121;SDS011;1571;52.524;14.104;2023-05-10T11:19:20;5.23;;;1.30;;
3121;SDS011;1571;52.524;14.104;2023-05-10T11:21:48;2.57;;;1.67;;
3121;SDS011;1571;52.524;14.104;2023-05-10T11:24:18;1.57;;;1.47;;
3121;SDS011;1571;52.524;14.104;2023-05-10T11:26:49;2.30;;;1.80;;
3121;SDS011;1571;52.524;14.104;2023-05-10T11:29:18;3.33;;;1.77;;
3121;SDS011;1571;52.524;14.104;2023-05-10T11:31:48;2.93;;;2.10;;
3121;SDS011;1571;52.524;14.104;2023-05-10T11:34:28;2.10;;;1.70;;
3121;SDS011;1571;52.524;14.104;2023-05-10T11:37:00;1.33;;;1.23;;
3121;SDS011;1571;52.524;14.104;2023-05-10T11:39:28;2.43;;;1.90;;
3121;SDS011;1571;52.524;14.104;2023-05-10T11:41:57;2.97;;;1.40;;
3121;SDS011;1571;52.524;14.104;2023-05-10T11:44:28;2.80;;;1.40;;
3121;SDS011;1571;52.524;14.104;2023-05-10T11:46:58;3.03;;;1.53;;
3121;SDS011;1571;52.524;14.104;2023-05-10T11:49:27;3.27;;;1.87;;
3121;SDS011;1571;52.524;14.104;2023-05-10T11:52:03;5.50;;;2.33;;
3121;SDS011;1571;52.524;14.104;2023-05-10T11:54:31;1.90;;;1.80;;
3121;SDS011;1571;52.524;14.104;2023-05-10T11:57:01;1.30;;;1.20;;
3121;SDS011;1571;52.524;14.104;2023-05-10T11:59:30;1.70;;;1.57;;
3121;SDS011;1571;52.524;14.104;2023-05-10T12:01:58;3.10;;;1.10;;
3121;SDS011;1571;52.524;14.104;2023-05-10T12:04:28;2.50;;;1.20;;
3121;SDS011;1571;52.524;14.104;2023-05-10T12:06:57;2.67;;;2.00;;
3121;SDS011;1571;52.524;14.104;2023-05-10T12:09:25;1.63;;;1.53;;
3121;SDS011;1571;52.524;14.104;2023-05-10T12:12:09;1.20;;;1.10;;
3121;SDS011;1571;52.524;14.104;2023-05-10T12:14:38;1.77;;;1.53;;
3121;SDS011;1571;52.524;14.104;2023-05-10T12:17:06;8.77;;;2.03;;
3121;SDS011;1571;52.524;14.104;2023-05-10T12:19:40;2.80;;;1.80;;
3121;SDS011;1571;52.524;14.104;2023-05-10T12:22:10;3.63;;;1.70;;
3121;SDS011;1571;52.524;14.104;2023-05-10T12:24:38;2.73;;;1.80;;
3121;SDS011;1571;52.524;14.104;2023-05-10T12:27:07;1.97;;;1.83;;
3121;SDS011;1571;52.524;14.104;2023-05-10T12:29:36;2.30;;;1.60;;
3121;SDS011;1571;52.524;14.104;2023-05-10T12:32:08;3.43;;;2.20;;
3121;SDS011;1571;52.524;14.104;2023-05-10T12:34:36;3.30;;;1.53;;
3121;SDS011;1571;52.524;14.104;2023-05-10T12:37:06;1.53;;;1.43;;
3121;SDS011;1571;52.524;14.104;2023-05-10T12:39:41;3.63;;;2.03;;
3121;SDS011;1571;52.524;14.104;2023-05-10T12:42:10;1.63;;;1.53;;
3121;SDS011;1571;52.524;14.104;2023-05-10T12:44:39;1.57;;;1.47;;
3121;SDS011;1571;52.524;14.104;2023-05-10T12:47:07;1.50;;;1.40;;
3121;SDS011;1571;52.524;14.104;2023-05-10T12:49:36;1.67;;;1.57;;
3121;SDS011;1571;52.524;14.104;2023-05-10T12:52:04;3.03;;;1.30;;
3121;SDS011;1571;52.524;14.104;2023-05-10T12:54:33;2.20;;;1.60;;
3121;SDS011;1571;52.524;14.104;2023-05-10T12:57:02;4.27;;;1.70;;
3121;SDS011;1571;52.524;14.104;2023-05-10T12:59:30;1.60;;;1.40;;
3121;SDS011;1571;52.524;14.104;2023-05-10T13:01:58;1.67;;;1.57;;
3121;SDS011;1571;52.524;14.104;2023-05-10T13:04:27;1.87;;;1.10;;
3121;SDS011;1571;52.524;14.104;2023-05-10T13:06:55;1.80;;;1.70;;
3121;SDS011;1571;52.524;14.104;2023-05-10T13:09:25;1.93;;;1.67;;
3121;SDS011;1571;52.524;14.104;2023-05-10T13:11:56;1.93;;;1.83;;
3121;SDS011;1571;52.524;14.104;2023-05-10T13:14:25;2.27;;;1.90;;
3121;SDS011;1571;52.524;14.104;2023-05-10T13:16:53;3.67;;;1.90;;
3121;SDS011;1571;52.524;14.104;2023-05-10T13:19:22;1.70;;;1.60;;
3121;SDS011;1571;52.524;14.104;2023-05-10T13:21:50;1.87;;;1.77;;
3121;SDS011;1571;52.524;14.104;2023-05-10T13:24:18;4.10;;;1.60;;
3121;SDS011;1571;52.524;14.104;2023-05-10T13:26:46;1.47;;;1.30;;
3121;SDS011;1571;52.524;14.104;2023-05-10T13:29:16;2.23;;;1.67;;
3121;SDS011;1571;52.524;14.104;2023-05-10T13:31:45;2.50;;;2.30;;
3121;SDS011;1571;52.524;14.104;2023-05-10T13:34:14;1.70;;;1.60;;
3121;SDS011;1571;52.524;14.104;2023-05-10T13:36:42;1.50;;;1.40;;
3121;SDS011;1571;52.524;14.104;2023-05-10T13:39:10;1.97;;;1.80;;
3121;SDS011;1571;52.524;14.104;2023-05-10T13:41:39;1.70;;;1.60;;
3121;SDS011;1571;52.524;14.104;2023-05-10T13:44:07;1.50;;;1.40;;
3121;SDS011;1571;52.524;14.104;2023-05-10T13:46:37;2.50;;;2.10;;
3121;SDS011;1571;52.524;14.104;2023-05-10T13:49:05;2.50;;;1.50;;
3121;SDS011;1571;52.524;14.104;2023-05-10T13:51:34;1.73;;;1.60;;
3121;SDS011;1571;52.524;14.104;2023-05-10T13:54:02;1.80;;;1.70;;
3121;SDS011;1571;52.524;14.104;2023-05-10T13:56:31;2.50;;;1.73;;
3121;SDS011;1571;52.524;14.104;2023-05-10T13:59:00;4.33;;;1.90;;
3121;SDS011;1571;52.524;14.104;2023-05-10T14:01:28;2.90;;;1.67;;
3121;SDS011;1571;52.524;14.104;2023-05-10T14:03:58;2.60;;;1.83;;
3121;SDS011;1571;52.524;14.104;2023-05-10T14:06:26;2.07;;;1.90;;
3121;SDS011;1571;52.524;14.104;2023-05-10T14:08:55;1.60;;;1.50;;
3121;SDS011;1571;52.524;14.104;2023-05-10T14:11:23;1.67;;;1.57;;
3121;SDS011;1571;52.524;14.104;2023-05-10T14:13:51;2.93;;;1.80;;
3121;SDS011;1571;52.524;14.104;2023-05-10T14:16:20;3.43;;;1.90;;
3121;SDS011;1571;52.524;14.104;2023-05-10T14:18:48;1.93;;;1.60;;
3121;SDS011;1571;52.524;14.104;2023-05-10T14:21:18;3.77;;;1.70;;
3121;SDS011;1571;52.524;14.104;2023-05-10T14:23:46;5.30;;;1.73;;
3121;SDS011;1571;52.524;14.104;2023-05-10T14:26:14;2.33;;;1.43;;
3121;SDS011;1571;52.524;14.104;2023-05-10T14:28:42;2.67;;;1.53;;
3121;SDS011;1571;52.524;14.104;2023-05-10T14:31:11;2.23;;;1.70;;
3121;SDS011;1571;52.524;14.104;2023-05-10T14:33:41;2.40;;;1.47;;
3121;SDS011;1571;52.524;14.104;2023-05-10T14:36:09;3.10;;;1.70;;
3121;SDS011;1571;52.524;14.104;2023-05-10T14:38:39;2.60;;;2.17;;
3121;SDS011;1571;52.524;14.104;2023-05-10T14:41:07;1.30;;;1.20;;
3121;SDS011;1571;52.524;14.104;2023-05-10T14:43:37;1.73;;;1.63;;
3121;SDS011;1571;52.524;14.104;2023-05-10T14:46:05;3.27;;;1.43;;
3121;SDS011;1571;52.524;14.104;2023-05-10T14:48:34;3.40;;;1.57;;
3121;SDS011;1571;52.524;14.104;2023-05-10T14:51:02;1.67;;;1.57;;
3121;SDS011;1571;52.524;14.104;2023-05-10T14:53:31;1.50;;;1.40;;
3121;SDS011;1571;52.524;14.104;2023-05-10T14:56:00;2.27;;;1.67;;
3121;SDS011;1571;52.524;14.104;2023-05-10T14:58:29;11.87;;;4.93;;
3121;SDS011;1571;52.524;14.104;2023-05-10T15:01:00;2.40;;;1.30;;
3121;SDS011;1571;52.524;14.104;2023-05-10T15:03:28;2.50;;;2.30;;
3121;SDS011;1571;52.524;14.104;2023-05-10T15:05:57;2.87;;;1.70;;
3121;SDS011;1571;52.524;14.104;2023-05-10T15:08:26;1.53;;;1.37;;
3121;SDS011;1571;52.524;14.104;2023-05-10T15:10:54;4.53;;;2.20;;
3121;SDS011;1571;52.524;14.104;2023-05-10T15:13:24;7.23;;;2.17;;
3121;SDS011;1571;52.524;14.104;2023-05-10T15:15:52;4.33;;;2.33;;
3121;SDS011;1571;52.524;14.104;2023-05-10T15:18:21;3.90;;;2.20;;
3121;SDS011;1571;52.524;14.104;2023-05-10T15:20:52;2.70;;;1.67;;
3121;SDS011;1571;52.524;14.104;2023-05-10T15:23:20;3.53;;;1.43;;
3121;SDS011;1571;52.524;14.104;2023-05-10T15:25:48;3.53;;;1.43;;
3121;SDS011;1571;52.524;14.104;2023-05-10T15:28:17;1.90;;;1.70;;
3121;SDS011;1571;52.524;14.104;2023-05-10T15:30:46;2.00;;;1.37;;